sensor_id;sensor_type;location;lat;lon;timestamp;P1;durP1;ratioP1;P2;durP2;ratioP2
73951;SDS011;62304;47.662;18.324;2023-02-28T00:00:47;17.40;;;8.45;;
73951;SDS011;62304;47.662;18.324;2023-02-28T00:03:51;17.80;;;8.00;;
73951;SDS011;62304;47.662;18.324;2023-02-28T00:06:53;15.80;;;8.00;;
73951;SDS011;62304;47.662;18.324;2023-02-28T00:09:57;17.50;;;7.72;;
73951;SDS011;62304;47.662;18.324;2023-02-28T00:13:01;16.52;;;7.00;;
73951;SDS011;62304;47.662;18.324;2023-02-28T00:16:08;16.23;;;7.22;;
73951;SDS011;62304;47.662;18.324;2023-02-28T00:19:13;17.17;;;7.53;;
73951;SDS011;62304;47.662;18.324;2023-02-28T00:22:16;17.85;;;7.10;;
73951;SDS011;62304;47.662;18.324;2023-02-28T00:25:22;15.50;;;6.72;;
73951;SDS011;62304;47.662;18.324;2023-02-28T00:28:27;15.43;;;6.90;;
73951;SDS011;62304;47.662;18.324;2023-02-28T00:31:29;15.23;;;7.20;;
73951;SDS011;62304;47.662;18.324;2023-02-28T00:34:32;15.93;;;6.73;;
73951;SDS011;62304;47.662;18.324;2023-02-28T00:37:39;14.80;;;7.05;;
73951;SDS011;62304;47.662;18.324;2023-02-28T00:40:43;19.52;;;7.50;;
73951;SDS011;62304;47.662;18.324;2023-02-28T00:43:45;14.43;;;6.90;;
73951;SDS011;62304;47.662;18.324;2023-02-28T00:46:48;14.90;;;7.30;;
73951;SDS011;62304;47.662;18.324;2023-02-28T00:49:51;16.67;;;7.60;;
73951;SDS011;62304;47.662;18.324;2023-02-28T00:52:54;17.73;;;7.53;;
73951;SDS011;62304;47.662;18.324;2023-02-28T00:55:57;15.93;;;7.12;;
73951;SDS011;62304;47.662;18.324;2023-02-28T00:59:01;17.25;;;7.95;;
73951;SDS011;62304;47.662;18.324;2023-02-28T01:02:03;14.80;;;7.20;;
73951;SDS011;62304;47.662;18.324;2023-02-28T01:05:07;16.67;;;7.93;;
73951;SDS011;62304;47.662;18.324;2023-02-28T01:08:10;16.60;;;7.47;;
73951;SDS011;62304;47.662;18.324;2023-02-28T01:11:14;15.32;;;6.93;;
73951;SDS011;62304;47.662;18.324;2023-02-28T01:14:18;14.80;;;7.03;;
73951;SDS011;62304;47.662;18.324;2023-02-28T01:17:21;14.85;;;6.90;;
73951;SDS011;62304;47.662;18.324;2023-02-28T01:20:24;17.67;;;7.30;;
73951;SDS011;62304;47.662;18.324;2023-02-28T01:23:27;20.13;;;8.17;;
73951;SDS011;62304;47.662;18.324;2023-02-28T01:26:30;17.95;;;6.85;;
73951;SDS011;62304;47.662;18.324;2023-02-28T01:29:34;17.60;;;7.65;;
73951;SDS011;62304;47.662;18.324;2023-02-28T01:32:37;17.10;;;7.28;;
73951;SDS011;62304;47.662;18.324;2023-02-28T01:35:40;17.83;;;7.17;;
73951;SDS011;62304;47.662;18.324;2023-02-28T01:38:43;15.23;;;6.57;;
73951;SDS011;62304;47.662;18.324;2023-02-28T01:41:48;14.07;;;7.00;;
73951;SDS011;62304;47.662;18.324;2023-02-28T01:48:05;17.42;;;7.57;;
73951;SDS011;62304;47.662;18.324;2023-02-28T01:51:12;18.13;;;7.43;;
73951;SDS011;62304;47.662;18.324;2023-02-28T01:54:24;15.55;;;6.78;;
73951;SDS011;62304;47.662;18.324;2023-02-28T01:57:33;16.20;;;6.90;;
73951;SDS011;62304;47.662;18.324;2023-02-28T02:00:40;15.35;;;7.37;;
73951;SDS011;62304;47.662;18.324;2023-02-28T02:03:45;16.75;;;7.07;;
73951;SDS011;62304;47.662;18.324;2023-02-28T02:06:48;13.47;;;6.47;;
73951;SDS011;62304;47.662;18.324;2023-02-28T02:33:26;30.75;;;7.72;;
73951;SDS011;62304;47.662;18.324;2023-02-28T02:36:53;16.25;;;6.87;;
73951;SDS011;62304;47.662;18.324;2023-02-28T02:40:15;17.53;;;7.07;;
73951;SDS011;62304;47.662;18.324;2023-02-28T02:43:28;15.77;;;6.55;;
73951;SDS011;62304;47.662;18.324;2023-02-28T02:46:39;14.87;;;6.90;;
73951;SDS011;62304;47.662;18.324;2023-02-28T02:49:48;14.18;;;6.65;;
73951;SDS011;62304;47.662;18.324;2023-02-28T02:52:55;15.38;;;7.10;;
73951;SDS011;62304;47.662;18.324;2023-02-28T02:56:02;16.03;;;6.90;;
73951;SDS011;62304;47.662;18.324;2023-02-28T02:59:07;17.20;;;7.17;;
73951;SDS011;62304;47.662;18.324;2023-02-28T03:02:15;17.50;;;6.95;;
73951;SDS011;62304;47.662;18.324;2023-02-28T03:05:21;14.73;;;6.43;;
73951;SDS011;62304;47.662;18.324;2023-02-28T03:08:36;14.77;;;7.00;;
73951;SDS011;62304;47.662;18.324;2023-02-28T03:11:40;16.00;;;7.17;;
73951;SDS011;62304;47.662;18.324;2023-02-28T03:14:51;16.27;;;7.28;;
73951;SDS011;62304;47.662;18.324;2023-02-28T03:18:25;17.55;;;7.72;;
73951;SDS011;62304;47.662;18.324;2023-02-28T03:21:40;16.90;;;8.73;;
73951;SDS011;62304;47.662;18.324;2023-02-28T03:25:07;17.95;;;7.75;;
73951;SDS011;62304;47.662;18.324;2023-02-28T03:28:24;16.53;;;7.70;;
73951;SDS011;62304;47.662;18.324;2023-02-28T03:31:40;17.80;;;8.02;;
73951;SDS011;62304;47.662;18.324;2023-02-28T03:34:56;18.83;;;7.78;;
73951;SDS011;62304;47.662;18.324;2023-02-28T03:42:15;16.98;;;7.87;;
73951;SDS011;62304;47.662;18.324;2023-02-28T03:45:17;17.27;;;7.10;;
73951;SDS011;62304;47.662;18.324;2023-02-28T03:48:29;17.40;;;7.03;;
73951;SDS011;62304;47.662;18.324;2023-02-28T03:51:39;16.98;;;7.32;;
73951;SDS011;62304;47.662;18.324;2023-02-28T03:54:45;16.05;;;7.05;;
73951;SDS011;62304;47.662;18.324;2023-02-28T03:58:01;14.95;;;7.03;;
73951;SDS011;62304;47.662;18.324;2023-02-28T04:01:20;15.70;;;6.87;;
73951;SDS011;62304;47.662;18.324;2023-02-28T04:04:31;16.07;;;7.07;;
73951;SDS011;62304;47.662;18.324;2023-02-28T04:07:34;13.93;;;6.70;;
73951;SDS011;62304;47.662;18.324;2023-02-28T04:10:37;16.10;;;6.82;;
73951;SDS011;62304;47.662;18.324;2023-02-28T04:13:41;15.25;;;6.28;;
73951;SDS011;62304;47.662;18.324;2023-02-28T04:16:44;14.37;;;6.90;;
73951;SDS011;62304;47.662;18.324;2023-02-28T04:19:47;14.32;;;6.90;;
73951;SDS011;62304;47.662;18.324;2023-02-28T04:22:50;13.50;;;6.22;;
73951;SDS011;62304;47.662;18.324;2023-02-28T04:25:54;14.07;;;6.78;;
73951;SDS011;62304;47.662;18.324;2023-02-28T04:28:58;17.15;;;6.80;;
73951;SDS011;62304;47.662;18.324;2023-02-28T04:32:02;14.33;;;6.40;;
73951;SDS011;62304;47.662;18.324;2023-02-28T04:35:06;13.52;;;5.97;;
73951;SDS011;62304;47.662;18.324;2023-02-28T04:38:13;14.98;;;6.72;;
73951;SDS011;62304;47.662;18.324;2023-02-28T04:41:16;15.63;;;7.25;;
73951;SDS011;62304;47.662;18.324;2023-02-28T04:44:19;15.13;;;6.97;;
73951;SDS011;62304;47.662;18.324;2023-02-28T04:47:22;16.77;;;6.50;;
73951;SDS011;62304;47.662;18.324;2023-02-28T04:50:26;11.43;;;6.00;;
73951;SDS011;62304;47.662;18.324;2023-02-28T04:53:30;13.98;;;6.82;;
73951;SDS011;62304;47.662;18.324;2023-02-28T04:56:33;17.52;;;7.37;;
73951;SDS011;62304;47.662;18.324;2023-02-28T04:59:37;17.58;;;7.00;;
73951;SDS011;62304;47.662;18.324;2023-02-28T05:02:39;18.10;;;6.83;;
73951;SDS011;62304;47.662;18.324;2023-02-28T05:05:42;15.27;;;6.87;;
73951;SDS011;62304;47.662;18.324;2023-02-28T05:08:46;15.77;;;7.32;;
73951;SDS011;62304;47.662;18.324;2023-02-28T05:11:49;16.60;;;7.15;;
73951;SDS011;62304;47.662;18.324;2023-02-28T05:14:52;14.55;;;6.93;;
73951;SDS011;62304;47.662;18.324;2023-02-28T05:17:55;17.93;;;7.13;;
73951;SDS011;62304;47.662;18.324;2023-02-28T05:20:59;14.87;;;6.22;;
73951;SDS011;62304;47.662;18.324;2023-02-28T05:24:06;17.85;;;8.55;;
73951;SDS011;62304;47.662;18.324;2023-02-28T05:27:11;17.25;;;7.70;;
73951;SDS011;62304;47.662;18.324;2023-02-28T05:30:14;15.77;;;6.65;;
73951;SDS011;62304;47.662;18.324;2023-02-28T05:33:18;16.63;;;7.90;;
73951;SDS011;62304;47.662;18.324;2023-02-28T05:36:21;19.55;;;8.73;;
73951;SDS011;62304;47.662;18.324;2023-02-28T05:39:24;18.40;;;7.45;;
73951;SDS011;62304;47.662;18.324;2023-02-28T05:42:27;21.37;;;7.60;;
73951;SDS011;62304;47.662;18.324;2023-02-28T05:45:30;17.97;;;7.30;;
73951;SDS011;62304;47.662;18.324;2023-02-28T05:48:34;19.37;;;7.62;;
73951;SDS011;62304;47.662;18.324;2023-02-28T05:51:38;19.48;;;8.60;;
73951;SDS011;62304;47.662;18.324;2023-02-28T05:54:42;21.25;;;9.73;;
73951;SDS011;62304;47.662;18.324;2023-02-28T05:57:45;17.65;;;8.05;;
73951;SDS011;62304;47.662;18.324;2023-02-28T06:00:48;22.43;;;8.17;;
73951;SDS011;62304;47.662;18.324;2023-02-28T06:03:51;19.75;;;7.95;;
73951;SDS011;62304;47.662;18.324;2023-02-28T06:06:54;21.83;;;8.45;;
73951;SDS011;62304;47.662;18.324;2023-02-28T06:10:00;18.10;;;7.53;;
73951;SDS011;62304;47.662;18.324;2023-02-28T06:13:03;19.77;;;7.05;;
73951;SDS011;62304;47.662;18.324;2023-02-28T06:16:08;20.13;;;7.70;;
73951;SDS011;62304;47.662;18.324;2023-02-28T06:19:13;17.17;;;6.32;;
73951;SDS011;62304;47.662;18.324;2023-02-28T06:22:17;14.38;;;6.35;;
73951;SDS011;62304;47.662;18.324;2023-02-28T06:25:20;16.20;;;7.12;;
73951;SDS011;62304;47.662;18.324;2023-02-28T06:28:24;19.77;;;7.87;;
73951;SDS011;62304;47.662;18.324;2023-02-28T06:31:28;23.97;;;9.40;;
73951;SDS011;62304;47.662;18.324;2023-02-28T06:34:32;22.87;;;9.00;;
73951;SDS011;62304;47.662;18.324;2023-02-28T06:37:36;19.90;;;8.23;;
73951;SDS011;62304;47.662;18.324;2023-02-28T06:40:42;32.10;;;11.00;;
73951;SDS011;62304;47.662;18.324;2023-02-28T06:43:46;19.30;;;8.85;;
73951;SDS011;62304;47.662;18.324;2023-02-28T06:46:49;18.10;;;8.10;;
73951;SDS011;62304;47.662;18.324;2023-02-28T06:49:52;22.07;;;8.77;;
73951;SDS011;62304;47.662;18.324;2023-02-28T06:52:55;23.15;;;9.15;;
73951;SDS011;62304;47.662;18.324;2023-02-28T06:55:57;20.30;;;8.60;;
73951;SDS011;62304;47.662;18.324;2023-02-28T06:59:01;15.15;;;6.68;;
73951;SDS011;62304;47.662;18.324;2023-02-28T07:02:05;20.93;;;8.00;;
73951;SDS011;62304;47.662;18.324;2023-02-28T07:05:10;18.90;;;8.65;;
73951;SDS011;62304;47.662;18.324;2023-02-28T07:08:13;18.77;;;7.75;;
73951;SDS011;62304;47.662;18.324;2023-02-28T07:11:16;17.00;;;7.53;;
73951;SDS011;62304;47.662;18.324;2023-02-28T07:14:19;17.80;;;7.32;;
73951;SDS011;62304;47.662;18.324;2023-02-28T07:17:22;19.17;;;9.63;;
73951;SDS011;62304;47.662;18.324;2023-02-28T07:20:25;17.62;;;8.75;;
73951;SDS011;62304;47.662;18.324;2023-02-28T07:23:28;19.40;;;8.57;;
73951;SDS011;62304;47.662;18.324;2023-02-28T07:26:31;15.50;;;6.78;;
73951;SDS011;62304;47.662;18.324;2023-02-28T07:29:36;14.32;;;7.07;;
73951;SDS011;62304;47.662;18.324;2023-02-28T07:32:40;14.73;;;7.47;;
73951;SDS011;62304;47.662;18.324;2023-02-28T07:35:46;17.40;;;8.20;;
73951;SDS011;62304;47.662;18.324;2023-02-28T07:38:49;13.95;;;6.00;;
73951;SDS011;62304;47.662;18.324;2023-02-28T07:41:52;17.85;;;7.95;;
73951;SDS011;62304;47.662;18.324;2023-02-28T07:44:59;17.05;;;7.93;;
73951;SDS011;62304;47.662;18.324;2023-02-28T07:48:03;13.30;;;6.77;;
73951;SDS011;62304;47.662;18.324;2023-02-28T07:51:06;16.60;;;6.40;;
73951;SDS011;62304;47.662;18.324;2023-02-28T07:54:09;19.75;;;7.72;;
73951;SDS011;62304;47.662;18.324;2023-02-28T07:57:12;17.37;;;7.87;;
73951;SDS011;62304;47.662;18.324;2023-02-28T08:00:15;13.57;;;5.45;;
73951;SDS011;62304;47.662;18.324;2023-02-28T08:03:19;17.37;;;7.53;;
73951;SDS011;62304;47.662;18.324;2023-02-28T08:06:23;19.93;;;7.17;;
73951;SDS011;62304;47.662;18.324;2023-02-28T08:09:27;14.55;;;7.03;;
73951;SDS011;62304;47.662;18.324;2023-02-28T08:12:32;13.75;;;6.32;;
73951;SDS011;62304;47.662;18.324;2023-02-28T08:15:35;16.08;;;6.70;;
73951;SDS011;62304;47.662;18.324;2023-02-28T08:18:38;16.80;;;6.00;;
73951;SDS011;62304;47.662;18.324;2023-02-28T08:21:41;19.90;;;5.47;;
73951;SDS011;62304;47.662;18.324;2023-02-28T08:24:44;21.55;;;10.50;;
73951;SDS011;62304;47.662;18.324;2023-02-28T08:27:47;15.35;;;7.18;;
73951;SDS011;62304;47.662;18.324;2023-02-28T08:30:54;11.45;;;3.35;;
73951;SDS011;62304;47.662;18.324;2023-02-28T08:33:57;13.90;;;5.87;;
73951;SDS011;62304;47.662;18.324;2023-02-28T08:37:01;13.20;;;4.90;;
73951;SDS011;62304;47.662;18.324;2023-02-28T08:40:04;10.15;;;4.22;;
73951;SDS011;62304;47.662;18.324;2023-02-28T08:43:08;12.23;;;4.95;;
73951;SDS011;62304;47.662;18.324;2023-02-28T08:46:12;12.33;;;4.30;;
73951;SDS011;62304;47.662;18.324;2023-02-28T08:49:17;9.53;;;4.00;;
73951;SDS011;62304;47.662;18.324;2023-02-28T08:52:21;9.27;;;3.10;;
73951;SDS011;62304;47.662;18.324;2023-02-28T08:55:24;9.35;;;4.30;;
73951;SDS011;62304;47.662;18.324;2023-02-28T08:58:27;10.38;;;4.25;;
73951;SDS011;62304;47.662;18.324;2023-02-28T09:01:31;12.67;;;6.10;;
73951;SDS011;62304;47.662;18.324;2023-02-28T09:04:34;16.20;;;6.40;;
73951;SDS011;62304;47.662;18.324;2023-02-28T09:07:37;8.93;;;4.07;;
73951;SDS011;62304;47.662;18.324;2023-02-28T09:10:40;13.50;;;6.62;;
73951;SDS011;62304;47.662;18.324;2023-02-28T09:13:43;13.45;;;6.75;;
73951;SDS011;62304;47.662;18.324;2023-02-28T09:16:46;8.90;;;3.93;;
73951;SDS011;62304;47.662;18.324;2023-02-28T09:19:49;12.13;;;4.80;;
73951;SDS011;62304;47.662;18.324;2023-02-28T09:22:53;13.65;;;5.35;;
73951;SDS011;62304;47.662;18.324;2023-02-28T09:25:56;8.98;;;4.75;;
73951;SDS011;62304;47.662;18.324;2023-02-28T09:28:59;10.55;;;4.80;;
73951;SDS011;62304;47.662;18.324;2023-02-28T09:32:03;9.60;;;6.00;;
73951;SDS011;62304;47.662;18.324;2023-02-28T09:35:08;8.87;;;4.50;;
73951;SDS011;62304;47.662;18.324;2023-02-28T09:38:15;11.50;;;6.43;;
73951;SDS011;62304;47.662;18.324;2023-02-28T09:41:20;11.48;;;5.80;;
73951;SDS011;62304;47.662;18.324;2023-02-28T09:44:33;10.63;;;6.25;;
73951;SDS011;62304;47.662;18.324;2023-02-28T09:47:40;9.87;;;5.07;;
73951;SDS011;62304;47.662;18.324;2023-02-28T09:50:48;7.50;;;3.97;;
73951;SDS011;62304;47.662;18.324;2023-02-28T09:53:55;13.00;;;6.10;;
73951;SDS011;62304;47.662;18.324;2023-02-28T10:03:39;11.93;;;5.87;;
73951;SDS011;62304;47.662;18.324;2023-02-28T10:06:50;7.63;;;4.20;;
73951;SDS011;62304;47.662;18.324;2023-02-28T10:09:55;9.18;;;3.83;;
73951;SDS011;62304;47.662;18.324;2023-02-28T10:13:04;13.02;;;4.78;;
73951;SDS011;62304;47.662;18.324;2023-02-28T10:16:43;9.77;;;5.00;;
73951;SDS011;62304;47.662;18.324;2023-02-28T10:23:05;10.73;;;5.23;;
73951;SDS011;62304;47.662;18.324;2023-02-28T10:26:31;10.20;;;5.10;;
73951;SDS011;62304;47.662;18.324;2023-02-28T10:29:35;8.38;;;5.43;;
73951;SDS011;62304;47.662;18.324;2023-02-28T10:32:38;9.95;;;5.20;;
73951;SDS011;62304;47.662;18.324;2023-02-28T10:35:42;8.93;;;5.07;;
73951;SDS011;62304;47.662;18.324;2023-02-28T10:38:46;9.97;;;5.13;;
73951;SDS011;62304;47.662;18.324;2023-02-28T10:41:50;14.70;;;5.18;;
73951;SDS011;62304;47.662;18.324;2023-02-28T10:51:16;9.47;;;5.50;;
73951;SDS011;62304;47.662;18.324;2023-02-28T10:54:23;7.83;;;4.77;;
73951;SDS011;62304;47.662;18.324;2023-02-28T10:57:37;7.35;;;4.20;;
73951;SDS011;62304;47.662;18.324;2023-02-28T11:00:40;10.48;;;4.22;;
73951;SDS011;62304;47.662;18.324;2023-02-28T11:03:43;8.35;;;3.92;;
73951;SDS011;62304;47.662;18.324;2023-02-28T11:06:46;14.73;;;5.60;;
73951;SDS011;62304;47.662;18.324;2023-02-28T11:09:59;9.47;;;4.50;;
73951;SDS011;62304;47.662;18.324;2023-02-28T11:13:02;13.02;;;4.72;;
73951;SDS011;62304;47.662;18.324;2023-02-28T11:16:06;8.82;;;4.05;;
73951;SDS011;62304;47.662;18.324;2023-02-28T11:19:49;7.85;;;3.78;;
73951;SDS011;62304;47.662;18.324;2023-02-28T11:22:46;8.87;;;5.07;;
73951;SDS011;62304;47.662;18.324;2023-02-28T11:25:51;10.33;;;5.10;;
73951;SDS011;62304;47.662;18.324;2023-02-28T11:29:03;11.80;;;5.43;;
73951;SDS011;62304;47.662;18.324;2023-02-28T11:32:21;11.75;;;4.90;;
73951;SDS011;62304;47.662;18.324;2023-02-28T11:35:32;8.48;;;4.60;;
73951;SDS011;62304;47.662;18.324;2023-02-28T11:38:38;8.23;;;4.60;;
73951;SDS011;62304;47.662;18.324;2023-02-28T11:52:12;7.93;;;4.10;;
73951;SDS011;62304;47.662;18.324;2023-02-28T12:09:40;11.40;;;5.32;;
73951;SDS011;62304;47.662;18.324;2023-02-28T12:26:32;8.43;;;4.70;;
73951;SDS011;62304;47.662;18.324;2023-02-28T12:29:47;8.13;;;4.27;;
73951;SDS011;62304;47.662;18.324;2023-02-28T12:33:03;9.23;;;4.97;;
73951;SDS011;62304;47.662;18.324;2023-02-28T12:36:10;8.27;;;4.90;;
73951;SDS011;62304;47.662;18.324;2023-02-28T12:42:59;8.45;;;4.85;;
73951;SDS011;62304;47.662;18.324;2023-02-28T12:46:18;9.30;;;4.97;;
73951;SDS011;62304;47.662;18.324;2023-02-28T12:49:40;8.30;;;4.50;;
73951;SDS011;62304;47.662;18.324;2023-02-28T12:59:52;8.98;;;4.20;;
73951;SDS011;62304;47.662;18.324;2023-02-28T13:06:28;8.67;;;4.63;;
73951;SDS011;62304;47.662;18.324;2023-02-28T13:09:55;10.20;;;4.90;;
73951;SDS011;62304;47.662;18.324;2023-02-28T13:13:01;64.68;;;9.73;;
73951;SDS011;62304;47.662;18.324;2023-02-28T13:16:07;14.98;;;5.10;;
73951;SDS011;62304;47.662;18.324;2023-02-28T13:19:16;7.80;;;4.70;;
73951;SDS011;62304;47.662;18.324;2023-02-28T13:38:21;8.10;;;4.30;;
73951;SDS011;62304;47.662;18.324;2023-02-28T13:45:19;14.35;;;5.70;;
73951;SDS011;62304;47.662;18.324;2023-02-28T13:48:26;8.70;;;4.85;;
73951;SDS011;62304;47.662;18.324;2023-02-28T13:51:46;9.20;;;5.13;;
73951;SDS011;62304;47.662;18.324;2023-02-28T13:58:26;10.80;;;5.57;;
73951;SDS011;62304;47.662;18.324;2023-02-28T14:05:26;9.77;;;5.60;;
73951;SDS011;62304;47.662;18.324;2023-02-28T14:08:31;9.37;;;4.80;;
73951;SDS011;62304;47.662;18.324;2023-02-28T14:11:37;9.60;;;4.80;;
73951;SDS011;62304;47.662;18.324;2023-02-28T14:17:56;9.20;;;4.50;;
73951;SDS011;62304;47.662;18.324;2023-02-28T14:21:16;15.00;;;5.07;;
73951;SDS011;62304;47.662;18.324;2023-02-28T14:31:12;16.67;;;7.18;;
73951;SDS011;62304;47.662;18.324;2023-02-28T14:37:26;11.80;;;5.05;;
73951;SDS011;62304;47.662;18.324;2023-02-28T14:40:42;14.87;;;6.13;;
73951;SDS011;62304;47.662;18.324;2023-02-28T14:43:49;11.87;;;5.50;;
73951;SDS011;62304;47.662;18.324;2023-02-28T14:50:17;12.75;;;4.25;;
73951;SDS011;62304;47.662;18.324;2023-02-28T14:53:26;8.93;;;4.50;;
73951;SDS011;62304;47.662;18.324;2023-02-28T14:56:35;8.83;;;3.77;;
73951;SDS011;62304;47.662;18.324;2023-02-28T14:59:40;9.00;;;4.23;;
73951;SDS011;62304;47.662;18.324;2023-02-28T15:02:43;9.15;;;4.47;;
73951;SDS011;62304;47.662;18.324;2023-02-28T15:05:53;13.25;;;6.32;;
73951;SDS011;62304;47.662;18.324;2023-02-28T15:12:14;15.30;;;4.10;;
73951;SDS011;62304;47.662;18.324;2023-02-28T15:15:18;13.87;;;4.83;;
73951;SDS011;62304;47.662;18.324;2023-02-28T15:21:47;12.60;;;4.93;;
73951;SDS011;62304;47.662;18.324;2023-02-28T15:24:53;10.15;;;4.55;;
73951;SDS011;62304;47.662;18.324;2023-02-28T15:27:56;14.20;;;4.80;;
73951;SDS011;62304;47.662;18.324;2023-02-28T15:31:01;20.17;;;5.10;;
73951;SDS011;62304;47.662;18.324;2023-02-28T15:34:06;13.32;;;4.80;;
73951;SDS011;62304;47.662;18.324;2023-02-28T15:40:56;19.65;;;4.97;;
73951;SDS011;62304;47.662;18.324;2023-02-28T15:47:27;10.10;;;4.30;;
73951;SDS011;62304;47.662;18.324;2023-02-28T15:50:32;12.95;;;5.45;;
73951;SDS011;62304;47.662;18.324;2023-02-28T15:53:41;11.40;;;5.40;;
73951;SDS011;62304;47.662;18.324;2023-02-28T15:57:21;11.60;;;5.45;;
73951;SDS011;62304;47.662;18.324;2023-02-28T16:00:30;8.03;;;3.73;;
73951;SDS011;62304;47.662;18.324;2023-02-28T16:03:40;15.67;;;9.93;;
73951;SDS011;62304;47.662;18.324;2023-02-28T16:06:59;14.90;;;5.32;;
73951;SDS011;62304;47.662;18.324;2023-02-28T16:10:05;12.90;;;5.28;;
73951;SDS011;62304;47.662;18.324;2023-02-28T16:13:11;15.20;;;5.15;;
73951;SDS011;62304;47.662;18.324;2023-02-28T16:16:19;12.63;;;5.20;;
73951;SDS011;62304;47.662;18.324;2023-02-28T16:19:24;14.17;;;6.10;;
73951;SDS011;62304;47.662;18.324;2023-02-28T16:22:28;15.52;;;7.25;;
73951;SDS011;62304;47.662;18.324;2023-02-28T16:25:40;20.73;;;8.50;;
73951;SDS011;62304;47.662;18.324;2023-02-28T16:28:46;17.30;;;7.62;;
73951;SDS011;62304;47.662;18.324;2023-02-28T16:31:49;20.83;;;7.80;;
73951;SDS011;62304;47.662;18.324;2023-02-28T16:34:53;20.93;;;7.87;;
73951;SDS011;62304;47.662;18.324;2023-02-28T16:37:56;23.02;;;8.38;;
73951;SDS011;62304;47.662;18.324;2023-02-28T16:40:59;22.65;;;10.23;;
73951;SDS011;62304;47.662;18.324;2023-02-28T16:44:02;28.30;;;11.60;;
73951;SDS011;62304;47.662;18.324;2023-02-28T16:47:15;31.70;;;14.57;;
73951;SDS011;62304;47.662;18.324;2023-02-28T16:50:22;36.17;;;16.33;;
73951;SDS011;62304;47.662;18.324;2023-02-28T16:53:28;44.92;;;17.92;;
73951;SDS011;62304;47.662;18.324;2023-02-28T16:56:31;74.28;;;26.73;;
73951;SDS011;62304;47.662;18.324;2023-02-28T16:59:35;29.75;;;13.07;;
73951;SDS011;62304;47.662;18.324;2023-02-28T17:02:38;29.93;;;13.07;;
73951;SDS011;62304;47.662;18.324;2023-02-28T17:05:44;27.07;;;12.10;;
73951;SDS011;62304;47.662;18.324;2023-02-28T17:08:51;29.10;;;13.32;;
73951;SDS011;62304;47.662;18.324;2023-02-28T17:11:54;28.17;;;13.23;;
73951;SDS011;62304;47.662;18.324;2023-02-28T17:14:59;35.45;;;14.93;;
73951;SDS011;62304;47.662;18.324;2023-02-28T17:18:02;48.37;;;19.93;;
73951;SDS011;62304;47.662;18.324;2023-02-28T17:21:14;45.47;;;18.43;;
73951;SDS011;62304;47.662;18.324;2023-02-28T17:24:19;38.63;;;18.20;;
73951;SDS011;62304;47.662;18.324;2023-02-28T17:27:32;36.45;;;17.10;;
73951;SDS011;62304;47.662;18.324;2023-02-28T17:30:36;45.78;;;18.45;;
73951;SDS011;62304;47.662;18.324;2023-02-28T17:33:39;43.97;;;19.70;;
73951;SDS011;62304;47.662;18.324;2023-02-28T17:36:44;39.30;;;16.90;;
73951;SDS011;62304;47.662;18.324;2023-02-28T17:39:48;36.95;;;16.80;;
73951;SDS011;62304;47.662;18.324;2023-02-28T17:42:52;57.72;;;26.80;;
73951;SDS011;62304;47.662;18.324;2023-02-28T17:45:58;39.83;;;17.85;;
73951;SDS011;62304;47.662;18.324;2023-02-28T17:49:01;44.30;;;18.47;;
73951;SDS011;62304;47.662;18.324;2023-02-28T17:52:05;33.27;;;16.53;;
73951;SDS011;62304;47.662;18.324;2023-02-28T17:55:11;40.45;;;17.37;;
73951;SDS011;62304;47.662;18.324;2023-02-28T17:58:14;32.55;;;15.70;;
73951;SDS011;62304;47.662;18.324;2023-02-28T18:01:19;29.12;;;14.55;;
73951;SDS011;62304;47.662;18.324;2023-02-28T18:04:25;28.57;;;13.27;;
73951;SDS011;62304;47.662;18.324;2023-02-28T18:07:29;31.60;;;13.47;;
73951;SDS011;62304;47.662;18.324;2023-02-28T18:10:34;49.90;;;20.65;;
73951;SDS011;62304;47.662;18.324;2023-02-28T18:13:38;74.05;;;24.98;;
73951;SDS011;62304;47.662;18.324;2023-02-28T18:16:42;71.07;;;25.25;;
73951;SDS011;62304;47.662;18.324;2023-02-28T18:19:46;43.20;;;17.93;;
73951;SDS011;62304;47.662;18.324;2023-02-28T18:22:51;31.87;;;16.73;;
73951;SDS011;62304;47.662;18.324;2023-02-28T18:25:57;36.28;;;16.87;;
73951;SDS011;62304;47.662;18.324;2023-02-28T18:29:02;42.60;;;19.23;;
73951;SDS011;62304;47.662;18.324;2023-02-28T18:32:06;39.40;;;18.62;;
73951;SDS011;62304;47.662;18.324;2023-02-28T18:35:10;42.33;;;19.83;;
73951;SDS011;62304;47.662;18.324;2023-02-28T18:38:15;38.47;;;20.00;;
73951;SDS011;62304;47.662;18.324;2023-02-28T18:41:21;44.05;;;20.70;;
73951;SDS011;62304;47.662;18.324;2023-02-28T18:44:25;41.08;;;19.42;;
73951;SDS011;62304;47.662;18.324;2023-02-28T18:47:29;42.75;;;21.80;;
73951;SDS011;62304;47.662;18.324;2023-02-28T18:50:35;45.63;;;23.07;;
73951;SDS011;62304;47.662;18.324;2023-02-28T18:53:42;44.13;;;23.03;;
73951;SDS011;62304;47.662;18.324;2023-02-28T18:56:47;48.87;;;24.55;;
73951;SDS011;62304;47.662;18.324;2023-02-28T18:59:52;50.53;;;23.50;;
73951;SDS011;62304;47.662;18.324;2023-02-28T19:02:56;50.05;;;24.40;;
73951;SDS011;62304;47.662;18.324;2023-02-28T19:06:00;53.23;;;24.03;;
73951;SDS011;62304;47.662;18.324;2023-02-28T19:09:05;51.47;;;23.90;;
73951;SDS011;62304;47.662;18.324;2023-02-28T19:12:11;55.63;;;25.65;;
73951;SDS011;62304;47.662;18.324;2023-02-28T19:15:15;66.03;;;28.45;;
73951;SDS011;62304;47.662;18.324;2023-02-28T19:18:21;56.75;;;24.33;;
73951;SDS011;62304;47.662;18.324;2023-02-28T19:21:25;55.07;;;24.63;;
73951;SDS011;62304;47.662;18.324;2023-02-28T19:24:30;44.80;;;20.27;;
73951;SDS011;62304;47.662;18.324;2023-02-28T19:27:34;53.22;;;20.08;;
73951;SDS011;62304;47.662;18.324;2023-02-28T19:30:48;45.33;;;18.60;;
73951;SDS011;62304;47.662;18.324;2023-02-28T19:33:57;42.60;;;17.42;;
73951;SDS011;62304;47.662;18.324;2023-02-28T19:37:02;39.27;;;18.27;;
73951;SDS011;62304;47.662;18.324;2023-02-28T19:40:08;39.27;;;17.00;;
73951;SDS011;62304;47.662;18.324;2023-02-28T19:43:16;32.38;;;14.73;;
73951;SDS011;62304;47.662;18.324;2023-02-28T19:46:20;33.47;;;15.27;;
73951;SDS011;62304;47.662;18.324;2023-02-28T19:49:25;35.33;;;14.80;;
73951;SDS011;62304;47.662;18.324;2023-02-28T19:52:30;26.27;;;12.87;;
73951;SDS011;62304;47.662;18.324;2023-02-28T19:55:36;31.37;;;13.00;;
73951;SDS011;62304;47.662;18.324;2023-02-28T19:58:42;31.67;;;14.30;;
73951;SDS011;62304;47.662;18.324;2023-02-28T20:01:48;34.20;;;13.82;;
73951;SDS011;62304;47.662;18.324;2023-02-28T20:04:56;34.10;;;13.73;;
73951;SDS011;62304;47.662;18.324;2023-02-28T20:08:03;32.63;;;13.90;;
73951;SDS011;62304;47.662;18.324;2023-02-28T20:11:09;29.00;;;12.27;;
73951;SDS011;62304;47.662;18.324;2023-02-28T20:14:16;33.00;;;14.60;;
73951;SDS011;62304;47.662;18.324;2023-02-28T20:17:21;43.10;;;17.35;;
73951;SDS011;62304;47.662;18.324;2023-02-28T20:20:26;35.97;;;16.08;;
73951;SDS011;62304;47.662;18.324;2023-02-28T20:23:30;37.50;;;16.50;;
73951;SDS011;62304;47.662;18.324;2023-02-28T20:26:35;35.93;;;16.20;;
73951;SDS011;62304;47.662;18.324;2023-02-28T20:29:42;39.53;;;16.58;;
73951;SDS011;62304;47.662;18.324;2023-02-28T20:32:46;42.92;;;17.60;;
73951;SDS011;62304;47.662;18.324;2023-02-28T20:36:00;41.35;;;18.55;;
73951;SDS011;62304;47.662;18.324;2023-02-28T20:39:07;38.40;;;19.57;;
73951;SDS011;62304;47.662;18.324;2023-02-28T20:42:12;38.90;;;18.00;;
73951;SDS011;62304;47.662;18.324;2023-02-28T20:45:18;41.45;;;19.15;;